Time;durP1;ratioP1;P1;durP2;ratioP2;P2;SDS_P1;SDS_P2;PMS_P1;PMS_P2;Temp;Humidity;BMP_temperature;BMP_pressure;BME280_temperature;BME280_humidity;BME280_pressure;Samples;Min_cycle;Max_cycle;Signal;HPM_P1;HPM_P2
2022/01/23 00:00:04;;;;;;;11.67;5.73;;;;;;;4.73;97.00;97806.22;5059822;28;20214;-68
2022/01/23 00:02:34;;;;;;;11.20;4.83;;;;;;;4.54;96.73;97797.94;5055553;28;20202;-68
2022/01/23 00:05:05;;;;;;;16.40;5.23;;;;;;;4.46;96.97;97803.66;5060274;28;20583;-67
2022/01/23 00:07:32;;;;;;;14.13;5.50;;;;;;;4.55;96.32;97804.84;5058236;28;20221;-67
2022/01/23 00:09:59;;;;;;;7.77;3.70;;;;;;;4.38;96.64;97799.91;5058983;28;20200;-67
2022/01/23 00:12:27;;;;;;;14.33;4.83;;;;;;;4.35;97.71;97808.78;5058618;28;20375;-67
2022/01/23 00:17:39;;;;;;;10.87;5.30;;;;;;;4.42;97.95;97801.38;5057904;28;20911;-68
2022/01/23 00:20:08;;;;;;;7.10;5.07;;;;;;;4.39;98.38;97791.13;5059540;28;20214;-67
2022/01/23 00:22:36;;;;;;;9.60;5.40;;;;;;;4.34;98.71;97782.75;5058347;28;20206;-67
2022/01/23 00:30:34;;;;;;;5.77;4.43;;;;;;;4.48;98.34;97786.16;5058667;28;20274;-67
2022/01/23 00:33:03;;;;;;;7.73;3.73;;;;;;;4.42;98.42;97783.13;5057816;28;20209;-67
2022/01/23 00:35:31;;;;;;;7.30;3.90;;;;;;;4.09;100.00;97782.72;5058907;28;20204;-67
2022/01/23 00:37:58;;;;;;;24.63;5.53;;;;;;;4.44;99.25;97778.59;5057820;28;20563;-68
2022/01/23 00:40:27;;;;;;;7.03;4.13;;;;;;;4.52;98.81;97781.53;5058082;28;20216;-67
2022/01/23 00:42:55;;;;;;;15.10;6.17;;;;;;;4.48;98.37;97772.25;5057144;28;20211;-68
2022/01/23 00:45:33;;;;;;;9.77;4.33;;;;;;;4.39;98.31;97772.84;5058638;28;20211;-67
2022/01/23 00:48:04;;;;;;;10.10;4.80;;;;;;;4.64;97.94;97776.31;5057784;28;20235;-68
2022/01/23 00:50:33;;;;;;;5.80;3.53;;;;;;;4.58;97.88;97778.53;5058719;28;20672;-67
2022/01/23 00:53:00;;;;;;;8.53;3.47;;;;;;;4.40;98.11;97777.16;5057204;28;20208;-68
2022/01/23 00:55:27;;;;;;;6.43;3.80;;;;;;;4.38;98.14;97773.81;5058119;28;20238;-67
2022/01/23 00:57:53;;;;;;;11.83;5.43;;;;;;;4.34;98.38;97765.34;5058455;28;20600;-67
2022/01/23 01:00:21;;;;;;;4.77;3.60;;;;;;;4.22;99.56;97778.38;5055983;28;20208;-68
2022/01/23 01:02:48;;;;;;;13.10;5.30;;;;;;;4.14;99.67;97775.44;5056922;28;20204;-67
2022/01/23 01:05:16;;;;;;;13.07;4.90;;;;;;;4.41;99.12;97763.16;5058093;28;20211;-67
2022/01/23 01:07:43;;;;;;;9.37;3.57;;;;;;;4.00;99.50;97767.69;5058537;28;20794;-66
2022/01/23 01:10:15;;;;;;;12.30;4.83;;;;;;;4.33;99.59;97774.09;5057867;28;20215;-67
2022/01/23 01:12:44;;;;;;;10.87;4.00;;;;;;;4.42;98.51;97775.28;5057947;28;20211;-67
2022/01/23 01:15:34;;;;;;;7.23;4.07;;;;;;;4.61;98.09;97776.53;5058214;28;20200;-68
2022/01/23 01:31:46;;;;;;;10.17;4.03;;;;;;;4.64;97.15;97765.06;5057874;28;20303;-67
2022/01/23 01:34:17;;;;;;;7.33;3.70;;;;;;;4.65;97.22;97774.56;5056670;28;20691;-67
2022/01/23 01:36:50;;;;;;;7.63;4.03;;;;;;;4.76;97.63;97770.28;5057636;28;20228;-68
2022/01/23 01:39:19;;;;;;;7.33;4.30;;;;;;;4.76;97.24;97766.81;5057104;28;20220;-67
2022/01/23 01:41:46;;;;;;;12.97;5.00;;;;;;;4.80;97.19;97784.81;5057345;28;20602;-68
2022/01/23 01:44:13;;;;;;;11.37;3.60;;;;;;;4.66;97.43;97778.81;5056362;28;20306;-68
2022/01/23 01:46:40;;;;;;;12.60;5.00;;;;;;;4.62;98.17;97783.44;5057108;28;20236;-68
2022/01/23 01:49:07;;;;;;;8.70;4.23;;;;;;;4.54;97.42;97779.66;5056906;28;20585;-68
2022/01/23 01:51:34;;;;;;;9.97;4.13;;;;;;;4.53;97.57;97781.44;5057374;28;20196;-67
2022/01/23 01:54:09;;;;;;;12.70;4.07;;;;;;;4.70;97.48;97780.28;5055843;28;20215;-68
2022/01/23 01:56:46;;;;;;;9.43;5.07;;;;;;;4.56;97.63;97789.06;5056879;28;20224;-68
2022/01/23 01:59:21;;;;;;;11.87;5.70;;;;;;;4.66;97.30;97791.88;5056349;28;20206;-68
2022/01/23 02:10:04;;;;;;;8.10;3.40;;;;;;;4.90;96.46;97778.00;5057145;28;20257;-67
2022/01/23 02:15:38;;;;;;;11.27;4.07;;;;;;;4.79;96.36;97784.91;5043550;28;20239;-68
2022/01/23 02:18:18;;;;;;;9.53;4.47;;;;;;;4.73;96.42;97783.53;5056770;28;20226;-67
2022/01/23 02:23:55;;;;;;;12.47;5.30;;;;;;;4.75;96.33;97784.28;5056285;28;20683;-67
2022/01/23 02:51:15;;;;;;;8.00;3.77;;;;;;;4.84;95.27;97773.22;5056273;28;20265;-67
2022/01/23 02:54:07;;;;;;;9.40;4.17;;;;;;;4.92;95.93;97776.94;5055719;28;21363;-67
2022/01/23 02:56:37;;;;;;;12.17;4.63;;;;;;;4.75;95.91;97772.97;5056636;28;20220;-68
2022/01/23 02:59:13;;;;;;;12.53;2.60;;;;;;;4.78;95.79;97768.38;5056932;28;20200;-68
2022/01/23 03:01:48;;;;;;;9.00;4.07;;;;;;;4.77;95.72;97765.91;5053403;28;20285;-68
2022/01/23 03:04:20;;;;;;;12.23;5.27;;;;;;;4.76;95.74;97767.69;5056726;28;20299;-67
2022/01/23 03:06:52;;;;;;;7.60;3.83;;;;;;;4.80;95.99;97765.66;5058885;28;20404;-67
2022/01/23 03:12:12;;;;;;;10.27;4.63;;;;;;;4.83;96.45;97751.47;5058937;28;20215;-68
2022/01/23 03:14:46;;;;;;;5.97;3.67;;;;;;;4.72;95.83;97762.75;5060170;28;20215;-67
2022/01/23 03:28:27;;;;;;;8.27;4.13;;;;;;;4.83;95.57;97769.75;5022891;28;20235;-68
2022/01/23 03:31:06;;;;;;;13.43;3.53;;;;;;;4.80;96.06;97763.06;5059781;28;21331;-68
2022/01/23 03:33:33;;;;;;;7.47;3.57;;;;;;;4.82;95.52;97770.72;5058161;28;21021;-68
2022/01/23 03:36:00;;;;;;;9.60;5.47;;;;;;;4.74;95.68;97771.34;5059872;28;20204;-67
2022/01/23 03:38:27;;;;;;;11.80;5.13;;;;;;;4.78;95.24;97778.84;5059224;28;20221;-67
2022/01/23 03:40:55;;;;;;;8.43;3.93;;;;;;;4.95;95.34;97784.59;5059406;28;20246;-68
2022/01/23 03:43:27;;;;;;;8.37;4.00;;;;;;;4.84;95.10;97779.25;5058597;28;20211;-68
2022/01/23 03:46:19;;;;;;;11.27;4.13;;;;;;;4.86;95.48;97781.75;5060602;28;20209;-68
2022/01/23 03:51:29;;;;;;;4.80;3.10;;;;;;;4.71;95.91;97776.75;5059570;28;20207;-68
2022/01/23 03:53:55;;;;;;;10.47;5.67;;;;;;;4.78;95.66;97783.25;5054687;28;20200;-67
2022/01/23 03:56:23;;;;;;;19.73;4.40;;;;;;;4.94;95.72;97785.53;5059035;28;20209;-67
2022/01/23 03:58:49;;;;;;;16.10;5.80;;;;;;;4.87;95.19;97784.28;5059509;28;20200;-67
2022/01/23 04:01:16;;;;;;;14.93;4.10;;;;;;;4.82;95.49;97795.97;5055441;28;20205;-67
2022/01/23 04:03:42;;;;;;;9.57;4.60;;;;;;;4.65;96.24;97790.22;5058123;28;20211;-67
2022/01/23 04:06:09;;;;;;;16.90;5.23;;;;;;;4.62;96.61;97798.25;5059319;28;20949;-68
2022/01/23 04:08:35;;;;;;;11.40;4.63;;;;;;;4.55;96.87;97791.78;5059094;28;20228;-68
2022/01/23 04:11:02;;;;;;;8.27;4.13;;;;;;;4.71;96.41;97795.03;5059422;28;20204;-67
2022/01/23 04:13:41;;;;;;;14.63;4.73;;;;;;;4.86;96.43;97797.41;5058655;28;20215;-68
2022/01/23 04:16:17;;;;;;;11.40;3.77;;;;;;;4.73;96.19;97799.19;5059424;28;20615;-67
2022/01/23 04:32:38;;;;;;;9.60;2.87;;;;;;;4.32;98.37;97774.22;5058694;28;20289;-68
2022/01/23 04:35:27;;;;;;;6.23;3.43;;;;;;;4.48;98.00;97774.84;5057693;28;20307;-68
2022/01/23 04:46:29;;;;;;;8.13;4.17;;;;;;;4.59;97.58;97772.38;5058762;28;20215;-68
2022/01/23 04:59:31;;;;;;;13.47;4.07;;;;;;;4.41;97.92;97773.59;5058065;28;20606;-67
2022/01/23 04:59:56;;;;;;;11.13;5.27;;;;;;;4.19;98.79;97769.91;5058058;28;20226;-68
2022/01/23 05:02:54;;;;;;;7.27;3.43;;;;;;;4.28;99.44;97777.97;5054529;28;20299;-68
2022/01/23 05:05:15;;;;;;;14.40;5.03;;;;;;;4.41;98.67;97773.59;5057631;28;20215;-67
2022/01/23 05:07:45;;;;;;;5.70;2.87;;;;;;;4.29;98.54;97779.66;5057729;28;20224;-67
2022/01/23 05:10:12;;;;;;;7.47;3.50;;;;;;;4.28;98.55;97788.41;5057887;28;21250;-68
2022/01/23 05:12:39;;;;;;;6.33;3.20;;;;;;;4.26;98.39;97792.88;5057103;28;20208;-68
2022/01/23 05:15:07;;;;;;;10.87;4.20;;;;;;;4.39;98.88;97796.34;5057711;28;20212;-67
2022/01/23 05:17:35;;;;;;;11.80;4.97;;;;;;;4.57;98.26;97779.44;5057830;28;20315;-67
2022/01/23 05:20:02;;;;;;;10.13;3.57;;;;;;;4.51;97.90;97785.94;5058254;28;20571;-68
2022/01/23 05:22:35;;;;;;;11.73;4.93;;;;;;;4.59;97.25;97774.97;5056529;28;20295;-67
2022/01/23 05:25:09;;;;;;;10.73;6.03;;;;;;;4.37;97.65;97774.75;5057642;28;20233;-67
2022/01/23 05:27:35;;;;;;;8.50;4.63;;;;;;;4.42;97.36;97783.13;5057424;28;20769;-67
2022/01/23 05:30:03;;;;;;;8.33;4.53;;;;;;;4.21;98.79;97787.13;5057572;28;20228;-68
2022/01/23 05:32:34;;;;;;;10.67;4.20;;;;;;;4.51;98.33;97779.88;5056554;28;20254;-68
2022/01/23 05:35:03;;;;;;;11.13;5.03;;;;;;;4.44;98.46;97779.47;5057766;28;20211;-68
2022/01/23 05:37:30;;;;;;;7.07;3.90;;;;;;;4.22;98.65;97771.38;5056964;28;20221;-67
2022/01/23 05:39:56;;;;;;;8.00;4.03;;;;;;;4.35;97.89;97774.00;5057301;28;20231;-68
2022/01/23 05:42:23;;;;;;;16.27;5.07;;;;;;;4.42;97.87;97790.94;5056774;28;20209;-67
2022/01/23 05:44:49;;;;;;;12.87;4.37;;;;;;;4.46;97.35;97780.19;5057952;28;20200;-67
2022/01/23 05:47:16;;;;;;;8.27;4.80;;;;;;;4.25;97.70;97788.59;5057039;28;20228;-68
2022/01/23 05:49:42;;;;;;;8.83;4.50;;;;;;;4.41;97.78;97790.09;5057533;28;20274;-68
2022/01/23 05:52:10;;;;;;;14.30;5.53;;;;;;;4.61;97.83;97787.00;5056733;28;20208;-67
2022/01/23 05:54:36;;;;;;;10.70;5.40;;;;;;;4.48;97.40;97780.94;5057226;28;20216;-67
2022/01/23 05:57:04;;;;;;;6.93;4.17;;;;;;;4.40;97.95;97778.00;5057123;28;20228;-67
2022/01/23 05:59:30;;;;;;;7.90;4.20;;;;;;;4.30;98.42;97781.28;5057351;28;20203;-67
2022/01/23 06:01:57;;;;;;;7.83;4.13;;;;;;;4.47;97.79;97789.69;5054121;28;20201;-68
2022/01/23 06:04:25;;;;;;;13.10;5.27;;;;;;;4.49;97.47;97789.56;5056536;28;20649;-68
2022/01/23 06:06:53;;;;;;;9.77;4.13;;;;;;;4.53;97.22;97798.88;5056733;28;21273;-68
2022/01/23 06:09:22;;;;;;;10.13;5.00;;;;;;;4.54;97.49;97805.78;5056045;28;20718;-68
2022/01/23 06:11:48;;;;;;;6.87;3.57;;;;;;;4.40;97.26;97809.31;5056566;28;20215;-67
2022/01/23 06:14:15;;;;;;;9.40;4.73;;;;;;;4.43;96.94;97818.69;5056852;28;20215;-68
2022/01/23 06:16:41;;;;;;;10.80;5.53;;;;;;;4.41;97.48;97836.25;5056525;28;20229;-67
2022/01/23 06:19:08;;;;;;;11.17;4.63;;;;;;;4.41;96.85;97838.84;5057138;28;20200;-67
2022/01/23 06:21:34;;;;;;;9.03;4.57;;;;;;;4.44;97.00;97843.84;5056759;28;20412;-67
2022/01/23 06:24:05;;;;;;;14.33;5.13;;;;;;;4.40;96.88;97835.41;5056199;28;21133;-67
2022/01/23 06:26:43;;;;;;;6.70;3.73;;;;;;;4.64;96.96;97828.53;5056460;28;20601;-68
2022/01/23 06:29:10;;;;;;;10.90;3.73;;;;;;;4.39;97.06;97832.88;5056908;28;20228;-67
2022/01/23 06:31:37;;;;;;;10.77;4.50;;;;;;;4.32;97.20;97831.63;5057118;28;20231;-68
2022/01/23 06:34:05;;;;;;;7.93;3.90;;;;;;;4.38;97.03;97839.06;5055845;28;20212;-68
2022/01/23 06:36:32;;;;;;;17.30;4.23;;;;;;;4.38;96.95;97852.09;5056991;28;20223;-68
2022/01/23 06:38:59;;;;;;;15.30;4.67;;;;;;;4.14;98.07;97842.41;5056571;28;20216;-67
2022/01/23 06:41:26;;;;;;;11.00;4.63;;;;;;;4.06;98.83;97844.69;5058277;28;20208;-68
2022/01/23 06:43:53;;;;;;;11.23;5.60;;;;;;;4.23;98.78;97843.50;5059815;28;20683;-67
2022/01/23 06:46:20;;;;;;;8.20;3.40;;;;;;;4.26;98.42;97847.66;5060515;28;20208;-68
2022/01/23 06:48:46;;;;;;;9.57;5.00;;;;;;;4.28;98.15;97838.81;5060017;28;21023;-68
2022/01/23 06:51:13;;;;;;;10.63;5.07;;;;;;;4.35;97.64;97847.06;5061622;28;20418;-68
2022/01/23 06:53:39;;;;;;;9.53;3.30;;;;;;;4.39;97.43;97841.56;5060181;28;20212;-67
2022/01/23 06:56:07;;;;;;;13.67;6.63;;;;;;;4.37;97.36;97832.97;5060822;28;20201;-68
2022/01/23 06:58:33;;;;;;;33.83;10.93;;;;;;;4.39;97.65;97838.09;5060011;28;20223;-68
2022/01/23 07:01:01;;;;;;;21.27;10.20;;;;;;;4.56;97.72;97835.22;5059063;28;20208;-68
2022/01/23 07:03:28;;;;;;;18.13;8.67;;;;;;;4.53;97.18;97843.25;5060071;28;20888;-68
2022/01/23 07:05:54;;;;;;;19.40;9.67;;;;;;;4.50;97.02;97831.22;5060418;28;20215;-68
2022/01/23 07:08:20;;;;;;;18.50;7.97;;;;;;;4.39;97.18;97849.41;5060852;28;20225;-67
2022/01/23 07:10:47;;;;;;;16.77;7.37;;;;;;;4.48;96.88;97848.78;5060299;28;20235;-68
2022/01/23 07:13:13;;;;;;;18.10;7.33;;;;;;;4.50;96.86;97840.84;5060111;28;20209;-68
2022/01/23 07:15:40;;;;;;;12.30;6.93;;;;;;;4.50;96.89;97846.91;5060307;28;20200;-67
2022/01/23 07:18:08;;;;;;;18.63;5.87;;;;;;;4.62;96.61;97855.69;5060448;28;20220;-67
2022/01/23 07:20:34;;;;;;;13.73;6.00;;;;;;;4.51;96.82;97858.19;5060431;28;20200;-67
2022/01/23 07:23:01;;;;;;;15.23;5.70;;;;;;;4.62;96.38;97861.75;5059607;28;20211;-67
2022/01/23 07:25:27;;;;;;;11.23;5.37;;;;;;;4.54;96.45;97865.81;5060714;28;20197;-67
2022/01/23 07:27:57;;;;;;;8.23;4.53;;;;;;;4.45;96.68;97871.63;5060568;28;20231;-67
2022/01/23 07:30:31;;;;;;;8.17;4.47;;;;;;;4.46;96.13;97870.69;5059997;28;20231;-68
2022/01/23 07:32:58;;;;;;;12.27;4.77;;;;;;;4.43;96.91;97871.75;5058713;28;20207;-68
2022/01/23 07:35:26;;;;;;;10.40;5.17;;;;;;;4.62;96.78;97871.34;5059861;28;20215;-68
2022/01/23 07:37:52;;;;;;;12.77;5.50;;;;;;;4.64;96.16;97877.31;5059890;28;20243;-67
2022/01/23 07:40:20;;;;;;;14.13;5.37;;;;;;;4.70;95.85;97889.94;5059913;28;20219;-68
2022/01/23 07:42:46;;;;;;;12.43;5.87;;;;;;;4.64;96.38;97885.97;5059470;28;20275;-67
2022/01/23 07:45:13;;;;;;;15.63;6.30;;;;;;;4.64;96.48;97883.38;5059550;28;20205;-68
2022/01/23 07:47:39;;;;;;;8.10;4.83;;;;;;;4.49;97.11;97896.59;5060218;28;20236;-68
2022/01/23 07:50:08;;;;;;;16.20;6.83;;;;;;;4.67;97.05;97893.63;5059370;28;20727;-67
2022/01/23 07:52:37;;;;;;;11.10;4.77;;;;;;;4.88;96.48;97894.81;5057793;28;20196;-67
2022/01/23 07:55:05;;;;;;;8.10;5.13;;;;;;;4.76;97.20;97898.25;5059439;28;20205;-67
2022/01/23 07:57:31;;;;;;;13.73;6.67;;;;;;;4.76;96.38;97890.41;5059336;28;20217;-68
2022/01/23 07:59:59;;;;;;;16.93;5.23;;;;;;;4.80;96.64;97896.25;5059088;28;20200;-67
2022/01/23 08:02:25;;;;;;;19.87;5.60;;;;;;;4.78;96.52;97898.97;5057091;28;20200;-67
2022/01/23 08:04:52;;;;;;;14.70;5.03;;;;;;;4.70;97.31;97908.22;5058851;28;20574;-68
2022/01/23 08:07:30;;;;;;;12.50;4.80;;;;;;;4.89;96.52;97902.53;5058968;28;20236;-67
2022/01/23 08:10:00;;;;;;;11.33;5.50;;;;;;;5.00;96.39;97905.28;5059793;28;20269;-67
2022/01/23 08:12:27;;;;;;;16.87;6.07;;;;;;;4.69;97.07;97919.63;5058528;28;20223;-67
2022/01/23 08:14:54;;;;;;;18.17;6.57;;;;;;;4.84;96.78;97919.47;5058568;28;20201;-67
2022/01/23 08:17:24;;;;;;;10.80;5.57;;;;;;;4.95;96.66;97912.59;5059469;28;20224;-68
2022/01/23 08:19:52;;;;;;;17.17;5.17;;;;;;;4.94;96.83;97910.06;5057728;28;20196;-68
2022/01/23 08:22:19;;;;;;;15.03;4.47;;;;;;;4.99;96.38;97919.28;5057168;28;20283;-68
2022/01/23 08:24:45;;;;;;;10.97;5.63;;;;;;;5.10;95.77;97916.75;5058532;28;20612;-67
2022/01/23 08:27:13;;;;;;;15.63;7.07;;;;;;;5.27;95.43;97913.88;5057915;28;20231;-66
2022/01/23 08:29:39;;;;;;;17.70;8.50;;;;;;;5.11;95.70;97907.97;5057638;28;20239;-68
2022/01/23 08:32:07;;;;;;;14.70;4.73;;;;;;;5.04;95.90;97909.34;5057299;28;20215;-67
2022/01/23 08:34:35;;;;;;;18.97;5.77;;;;;;;5.06;95.42;97915.28;5057529;28;20723;-68
2022/01/23 08:37:02;;;;;;;11.50;5.37;;;;;;;5.08;95.73;97902.97;5057311;28;20309;-67
2022/01/23 08:39:30;;;;;;;10.80;5.20;;;;;;;5.11;95.49;97915.81;5058305;28;20208;-67
2022/01/23 08:41:57;;;;;;;22.17;7.33;;;;;;;5.23;94.87;97907.19;5057449;28;21190;-68
2022/01/23 08:44:27;;;;;;;15.67;5.57;;;;;;;5.29;94.84;97911.97;5056888;28;20212;-68
2022/01/23 08:46:55;;;;;;;15.13;6.07;;;;;;;4.97;95.12;97921.13;5056852;28;20595;-68
2022/01/23 08:49:22;;;;;;;10.17;4.77;;;;;;;5.32;94.74;97919.63;5057554;28;20224;-68
2022/01/23 08:51:51;;;;;;;13.73;5.07;;;;;;;5.27;94.83;97919.09;5057450;28;20204;-67
2022/01/23 08:54:17;;;;;;;24.17;6.20;;;;;;;5.29;94.15;97911.97;5057186;28;20201;-68
2022/01/23 08:56:44;;;;;;;16.30;6.37;;;;;;;5.35;94.60;97915.97;5057282;28;20314;-67
2022/01/23 08:59:11;;;;;;;11.50;5.43;;;;;;;5.01;95.54;97912.16;5057337;28;20221;-68
2022/01/23 09:01:39;;;;;;;12.37;5.30;;;;;;;5.13;95.50;97908.72;5054975;28;20212;-67
2022/01/23 09:04:07;;;;;;;15.00;5.37;;;;;;;5.36;94.77;97907.16;5055680;28;20201;-67
2022/01/23 09:06:34;;;;;;;12.03;6.77;;;;;;;5.13;95.32;97903.50;5057329;28;20221;-68
2022/01/23 09:09:04;;;;;;;15.07;7.17;;;;;;;5.42;93.86;97902.34;5056613;28;20204;-68
2022/01/23 09:11:40;;;;;;;15.90;6.40;;;;;;;5.50;93.12;97905.28;5057629;28;20324;-67
2022/01/23 09:14:07;;;;;;;7.97;3.87;;;;;;;5.57;92.14;97902.09;5055850;28;20210;-67
2022/01/23 09:16:35;;;;;;;10.60;4.23;;;;;;;5.62;91.82;97900.00;5056751;28;20209;-67
2022/01/23 09:19:04;;;;;;;11.33;5.87;;;;;;;5.62;92.66;97897.41;5057086;28;20669;-68
2022/01/23 09:21:30;;;;;;;23.03;7.23;;;;;;;5.45;92.59;97902.16;5057759;28;20204;-67
2022/01/23 09:23:57;;;;;;;24.90;6.17;;;;;;;5.46;92.49;97907.25;5054971;28;20223;-67
2022/01/23 09:26:24;;;;;;;10.13;4.90;;;;;;;5.46;92.34;97904.66;5057810;28;20216;-68
2022/01/23 09:28:52;;;;;;;11.03;4.27;;;;;;;5.62;91.87;97900.00;5057611;28;20205;-67
2022/01/23 09:31:28;;;;;;;10.20;3.70;;;;;;;5.60;92.02;97901.91;5058260;28;20231;-69
2022/01/23 09:33:56;;;;;;;18.17;6.00;;;;;;;5.29;92.92;97911.97;5056768;28;20273;-68
2022/01/23 09:36:23;;;;;;;11.37;4.53;;;;;;;5.54;92.70;97906.75;5058745;28;20224;-68
2022/01/23 09:38:50;;;;;;;11.57;4.00;;;;;;;5.63;92.07;97906.09;5056125;28;20209;-67
2022/01/23 09:41:21;;;;;;;11.13;4.10;;;;;;;5.70;93.42;97915.16;5056332;28;20236;-67
2022/01/23 09:43:50;;;;;;;11.37;4.10;;;;;;;5.65;92.80;97914.66;5055201;28;20685;-67
2022/01/23 09:46:17;;;;;;;12.00;5.47;;;;;;;5.64;91.70;97907.78;5056705;28;20200;-68
2022/01/23 09:48:47;;;;;;;17.43;5.23;;;;;;;5.92;91.62;97918.84;5055646;28;20200;-69
2022/01/23 09:51:13;;;;;;;13.77;5.77;;;;;;;5.72;91.62;97921.16;5056697;28;20231;-69
2022/01/23 09:53:42;;;;;;;16.57;5.37;;;;;;;5.76;92.01;97923.47;5055507;28;20211;-68
2022/01/23 09:56:13;;;;;;;13.33;5.33;;;;;;;5.81;92.19;97931.00;5056078;28;20204;-68
2022/01/23 09:58:39;;;;;;;7.60;3.70;;;;;;;5.89;91.24;97926.88;5056266;28;20261;-67
2022/01/23 10:01:06;;;;;;;9.63;3.97;;;;;;;5.90;91.41;97925.94;5055224;28;20215;-67
2022/01/23 10:03:32;;;;;;;14.93;5.70;;;;;;;5.91;90.53;97918.94;5055953;28;20200;-67
2022/01/23 10:05:59;;;;;;;10.07;5.57;;;;;;;5.80;90.72;97918.84;5057037;28;20205;-68
2022/01/23 10:08:29;;;;;;;8.70;4.50;;;;;;;5.85;91.19;97914.97;5056582;28;20231;-67
2022/01/23 10:10:57;;;;;;;10.17;4.47;;;;;;;6.03;92.01;97910.22;5057235;28;20238;-67
2022/01/23 10:13:25;;;;;;;12.43;5.00;;;;;;;6.16;91.57;97912.69;5056951;28;20211;-67
2022/01/23 10:15:52;;;;;;;10.53;6.03;;;;;;;6.08;90.65;97903.72;5056382;28;20212;-68
2022/01/23 10:18:19;;;;;;;11.70;5.27;;;;;;;6.22;90.43;97909.66;5056354;28;20227;-67
2022/01/23 10:20:46;;;;;;;17.73;7.07;;;;;;;5.96;90.60;97909.81;5056016;28;20207;-67
2022/01/23 10:23:14;;;;;;;13.57;6.57;;;;;;;6.21;90.42;97907.13;5055843;28;20208;-68
2022/01/23 10:25:42;;;;;;;14.67;5.60;;;;;;;6.15;89.81;97899.72;5055389;28;21022;-67
2022/01/23 10:28:13;;;;;;;13.60;5.27;;;;;;;6.19;89.22;97904.63;5055905;28;20220;-67
2022/01/23 10:30:44;;;;;;;8.17;4.13;;;;;;;6.15;90.09;97908.41;5056146;28;20224;-68
2022/01/23 10:33:15;;;;;;;15.63;6.70;;;;;;;6.13;91.01;97912.06;5056269;28;20228;-69
2022/01/23 10:35:56;;;;;;;14.70;5.90;;;;;;;6.48;88.79;97908.59;5055424;28;21017;-68
2022/01/23 10:38:25;;;;;;;13.30;4.93;;;;;;;6.13;92.00;97912.91;5054527;28;20719;-68
2022/01/23 10:41:05;;;;;;;11.60;4.53;;;;;;;6.39;91.03;97911.03;5056091;28;20209;-68
2022/01/23 10:49:02;;;;;;;9.30;3.23;;;;;;;6.24;89.37;97905.13;5056589;28;20334;-67
2022/01/23 10:51:30;;;;;;;12.00;4.20;;;;;;;6.36;89.46;97898.97;5055623;28;20246;-68
2022/01/23 10:54:13;;;;;;;11.70;4.57;;;;;;;6.41;89.66;97894.25;5053341;28;20201;-68
2022/01/23 10:56:55;;;;;;;11.97;5.03;;;;;;;6.68;89.08;97900.09;5056038;28;20329;-67
2022/01/23 10:59:24;;;;;;;11.10;4.60;;;;;;;6.40;89.30;97882.13;5055802;28;20208;-68
2022/01/23 11:02:03;;;;;;;11.73;4.67;;;;;;;6.56;87.95;97895.75;5054097;28;20295;-68
2022/01/23 11:04:32;;;;;;;8.13;4.43;;;;;;;6.50;88.07;97896.19;5055644;28;20813;-68
2022/01/23 11:07:02;;;;;;;8.43;4.73;;;;;;;6.41;90.53;97883.78;5055431;28;20585;-68
2022/01/23 11:09:31;;;;;;;7.10;3.60;;;;;;;6.58;89.64;97878.16;5056619;28;20291;-67
2022/01/23 11:12:04;;;;;;;14.77;4.67;;;;;;;6.74;88.27;97878.69;5055696;28;20224;-68
2022/01/23 11:17:24;;;;;;;12.20;6.30;;;;;;;6.88;88.28;97874.06;5055685;28;20270;-69
2022/01/23 11:19:53;;;;;;;13.80;5.10;;;;;;;7.06;87.79;97874.50;5056311;28;20216;-67
2022/01/23 11:22:22;;;;;;;12.67;3.87;;;;;;;7.08;86.84;97868.19;5054584;28;20204;-68
2022/01/23 11:24:50;;;;;;;8.87;4.53;;;;;;;6.88;86.77;97865.38;5055849;28;20204;-67
2022/01/23 11:27:19;;;;;;;8.10;4.97;;;;;;;6.75;86.35;97877.75;5056707;28;20228;-67
2022/01/23 11:29:55;;;;;;;4.30;2.20;;;;;;;6.95;84.38;97874.44;5059101;28;20624;-68
2022/01/23 11:32:24;;;;;;;10.30;4.17;;;;;;;6.88;85.31;97874.06;5058293;28;20215;-68
2022/01/23 11:34:54;;;;;;;6.60;3.33;;;;;;;6.81;87.54;97870.25;5059150;28;20408;-67
2022/01/23 11:37:23;;;;;;;4.97;2.57;;;;;;;6.72;87.61;97873.56;5058232;28;20232;-68
2022/01/23 11:39:52;;;;;;;13.17;3.93;;;;;;;6.60;87.92;97876.25;5058764;28;20280;-69
2022/01/23 11:50:44;;;;;;;6.27;2.87;;;;;;;6.88;87.50;97854.91;5059187;28;20878;-68
2022/01/23 11:53:47;;;;;;;13.30;4.90;;;;;;;7.41;87.17;97855.94;5058201;28;20659;-67
2022/01/23 11:56:44;;;;;;;9.13;4.63;;;;;;;7.63;85.23;97849.88;5059006;28;20211;-67
2022/01/23 11:59:33;;;;;;;10.50;3.53;;;;;;;7.65;84.72;97858.44;5037894;28;20204;-67
2022/01/23 12:02:37;;;;;;;11.10;4.63;;;;;;;7.04;87.17;97850.16;5059209;28;20200;-68
2022/01/23 12:05:31;;;;;;;6.87;3.13;;;;;;;7.39;84.98;97846.50;5059827;28;20208;-68
2022/01/23 12:08:30;;;;;;;5.37;2.87;;;;;;;7.02;84.38;97841.59;5058899;28;20224;-69
2022/01/23 12:17:41;;;;;;;7.73;2.87;;;;;;;7.34;84.87;97832.94;5058760;28;20803;-68
2022/01/23 12:20:09;;;;;;;3.40;2.20;;;;;;;7.10;85.97;97840.03;5058058;28;20209;-67
2022/01/23 12:22:40;;;;;;;8.17;3.13;;;;;;;7.41;84.52;97834.97;5056566;28;20258;-68
2022/01/23 12:25:10;;;;;;;10.03;2.83;;;;;;;7.10;85.66;97823.50;5057035;28;20256;-68
2022/01/23 12:27:37;;;;;;;2.00;1.60;;;;;;;6.90;86.36;97832.06;5057966;28;20720;-68
2022/01/23 12:30:33;;;;;;;8.10;2.70;;;;;;;7.32;85.49;97830.44;5057965;28;20200;-68
2022/01/23 12:33:16;;;;;;;5.40;2.80;;;;;;;7.26;83.83;97830.06;5035668;28;20602;-67
2022/01/23 12:35:46;;;;;;;4.83;2.03;;;;;;;7.43;84.19;97822.56;5057887;28;20208;-68
2022/01/23 12:38:13;;;;;;;9.80;2.80;;;;;;;7.13;84.06;97824.09;5057525;28;20232;-67
2022/01/23 12:40:45;;;;;;;5.77;2.27;;;;;;;7.64;83.16;97820.06;5057813;28;20643;-67
2022/01/23 12:43:15;;;;;;;5.57;2.87;;;;;;;7.09;83.22;97833.16;5057631;28;20208;-68
2022/01/23 12:45:56;;;;;;;3.67;1.83;;;;;;;7.18;83.42;97824.59;5058375;28;20243;-67
2022/01/23 12:48:39;;;;;;;3.57;2.37;;;;;;;7.35;82.98;97824.13;5057759;28;20720;-67
2022/01/23 12:51:09;;;;;;;6.63;2.70;;;;;;;7.46;83.34;97827.56;5053665;28;20224;-67
2022/01/23 12:53:36;;;;;;;6.50;3.13;;;;;;;7.40;82.35;97828.03;5056511;28;20200;-67
2022/01/23 12:56:06;;;;;;;3.13;1.80;;;;;;;7.07;83.11;97814.06;5058077;28;20296;-67
2022/01/23 12:58:34;;;;;;;3.63;1.97;;;;;;;7.08;84.03;97817.56;5056448;28;20220;-67
2022/01/23 13:01:00;;;;;;;10.50;2.67;;;;;;;7.39;83.38;97820.28;5057369;28;20726;-66
2022/01/23 13:03:28;;;;;;;5.80;2.53;;;;;;;7.17;82.45;97816.84;5057376;28;20214;-67
2022/01/23 13:05:56;;;;;;;3.57;2.57;;;;;;;7.22;83.45;97817.28;5057309;28;20319;-67
2022/01/23 13:08:27;;;;;;;6.87;3.00;;;;;;;7.38;83.82;97814.22;5056948;28;20229;-67
2022/01/23 13:13:38;;;;;;;3.97;2.53;;;;;;;7.20;80.63;97813.97;5043133;28;20200;-68
2022/01/23 13:16:27;;;;;;;5.67;2.03;;;;;;;7.27;81.61;97816.84;5057091;28;20213;-68
2022/01/23 13:19:20;;;;;;;4.43;2.60;;;;;;;7.27;81.58;97816.00;5057231;28;20246;-67
2022/01/23 13:30:17;;;;;;;5.57;2.40;;;;;;;6.99;82.09;97821.69;5055986;28;20247;-67
2022/01/23 13:32:46;;;;;;;4.70;2.83;;;;;;;6.95;81.54;97819.41;5056492;28;20539;-66
2022/01/23 13:35:15;;;;;;;14.87;3.30;;;;;;;7.15;83.95;97816.13;5056438;28;20263;-68
2022/01/23 13:37:45;;;;;;;9.20;2.83;;;;;;;7.15;83.94;97811.69;5056446;28;20739;-67
2022/01/23 13:40:15;;;;;;;7.90;3.57;;;;;;;7.22;82.70;97817.28;5056426;28;20226;-67
2022/01/23 13:42:54;;;;;;;3.47;1.93;;;;;;;7.08;81.28;97821.00;5056013;28;20211;-67
2022/01/23 13:59:23;;;;;;;8.47;3.47;;;;;;;6.90;83.82;97800.63;5057050;28;20273;-67
2022/01/23 14:01:54;;;;;;;16.23;4.67;;;;;;;6.84;82.50;97801.06;5055796;28;20200;-66
2022/01/23 14:04:23;;;;;;;11.20;4.13;;;;;;;6.97;84.06;97800.00;5056136;28;20451;-68
2022/01/23 14:06:50;;;;;;;6.53;3.47;;;;;;;6.73;83.44;97804.50;5055962;28;20228;-67
2022/01/23 14:09:19;;;;;;;23.57;3.30;;;;;;;7.02;83.71;97799.66;5054307;28;20208;-67
2022/01/23 14:11:46;;;;;;;32.63;8.43;;;;;;;6.96;83.97;97795.75;5056394;28;20318;-67
2022/01/23 14:14:16;;;;;;;33.73;8.93;;;;;;;6.98;83.67;97793.81;5055766;28;20540;-68
2022/01/23 14:16:43;;;;;;;10.37;3.77;;;;;;;6.72;84.26;97796.75;5056940;28;20224;-67
2022/01/23 14:19:15;;;;;;;5.53;3.47;;;;;;;6.89;84.72;97798.94;5056084;28;20208;-67
2022/01/23 14:21:43;;;;;;;11.27;3.53;;;;;;;6.75;84.25;97799.16;5055580;28;20215;-68
2022/01/23 14:24:10;;;;;;;7.10;2.50;;;;;;;6.62;85.14;97803.66;5055767;28;20209;-66
2022/01/23 14:26:38;;;;;;;6.30;3.00;;;;;;;6.83;85.19;97794.16;5056260;28;20776;-67